Time;durP1;ratioP1;P1;durP2;ratioP2;P2;SDS_P1;SDS_P2;PMS_P1;PMS_P2;Temp;Humidity;BMP_temperature;BMP_pressure;BME280_temperature;BME280_humidity;BME280_pressure;Samples;Min_cycle;Max_cycle;Signal;HPM_P1;HPM_P2
2021/04/29 00:00:30;;;;;;;18.95;8.23;;;13.20;49.40;;;;;;5091841;28;20038;-71
2021/04/29 00:02:56;;;;;;;18.90;8.98;;;13.20;49.50;;;;;;5091532;28;20032;-71
2021/04/29 00:05:24;;;;;;;15.88;8.85;;;13.20;49.40;;;;;;5089940;28;20043;-71
2021/04/29 00:07:49;;;;;;;13.88;8.52;;;13.20;49.40;;;;;;5084707;28;20435;-71
2021/04/29 00:10:18;;;;;;;17.63;8.85;;;13.10;49.30;;;;;;5073473;28;20029;-71
2021/04/29 00:12:44;;;;;;;;;;;13.10;49.40;;;;;;5064813;28;20027;-71
2021/04/29 00:15:12;;;;;;;11.27;8.38;;;13.10;50.00;;;;;;5073574;28;20361;-71
2021/04/29 00:17:38;;;;;;;11.75;8.40;;;13.00;49.60;;;;;;5079908;28;20035;-71
2021/04/29 00:20:15;;;;;;;18.15;9.32;;;13.00;49.60;;;;;;5073738;28;20036;-71
2021/04/29 00:22:42;;;;;;;14.25;9.10;;;13.00;49.80;;;;;;5081248;28;20485;-71
2021/04/29 00:25:09;;;;;;;18.65;8.40;;;12.90;49.70;;;;;;5082417;28;20031;-71
2021/04/29 00:27:34;;;;;;;15.45;8.23;;;12.90;49.90;;;;;;5093341;28;20183;-71
2021/04/29 00:30:00;;;;;;;13.95;8.52;;;13.00;50.00;;;;;;5092556;28;20040;-71
2021/04/29 00:32:26;;;;;;;16.92;8.93;;;13.00;50.00;;;;;;5079229;28;20021;-71
2021/04/29 00:34:51;;;;;;;15.60;8.85;;;13.00;50.10;;;;;;5080228;28;20388;-71
2021/04/29 00:37:17;;;;;;;14.13;8.88;;;13.00;50.10;;;;;;5075258;28;20025;-71
2021/04/29 00:39:42;;;;;;;12.50;8.55;;;13.00;50.10;;;;;;5072827;28;20033;-71
2021/04/29 00:42:08;;;;;;;15.23;8.50;;;13.00;50.10;;;;;;5091014;28;20028;-71
2021/04/29 00:44:33;;;;;;;11.90;8.23;;;12.90;50.30;;;;;;5081189;28;20035;-71
2021/04/29 00:47:00;;;;;;;13.55;8.50;;;12.90;50.50;;;;;;5091903;28;20527;-71
2021/04/29 00:49:26;;;;;;;15.88;8.38;;;12.90;51.00;;;;;;5091310;28;20378;-71
2021/04/29 00:51:52;;;;;;;14.27;8.82;;;12.80;51.70;;;;;;5088812;28;20035;-71
2021/04/29 00:54:17;;;;;;;12.85;8.35;;;12.70;52.00;;;;;;5083146;28;20040;-71
2021/04/29 00:56:43;;;;;;;13.52;8.90;;;12.60;52.30;;;;;;5080328;28;20520;-71
2021/04/29 00:59:09;;;;;;;14.45;9.15;;;12.50;52.50;;;;;;5057011;28;20358;-71
2021/04/29 01:01:36;;;;;;;15.05;9.15;;;12.50;52.50;;;;;;5078561;28;20043;-71
2021/04/29 01:04:17;;;;;;;14.05;8.93;;;12.40;52.70;;;;;;5078628;28;20021;-71
2021/04/29 01:06:48;;;;;;;14.88;9.30;;;12.30;53.30;;;;;;5089230;28;20031;-70
2021/04/29 01:09:21;;;;;;;14.13;8.95;;;12.20;53.30;;;;;;5074322;28;20392;-71
2021/04/29 01:11:53;;;;;;;14.43;9.25;;;12.20;53.80;;;;;;5090322;28;20028;-71
2021/04/29 01:14:19;;;;;;;14.05;8.80;;;12.20;53.90;;;;;;5089644;28;20110;-71
2021/04/29 01:16:45;;;;;;;15.80;8.90;;;12.10;54.00;;;;;;5078117;28;20059;-71
2021/04/29 01:19:13;;;;;;;12.25;9.05;;;12.10;54.30;;;;;;5082795;28;20036;-71
2021/04/29 01:21:40;;;;;;;17.33;9.63;;;12.00;54.90;;;;;;5092680;28;20119;-71
2021/04/29 01:24:14;;;;;;;15.32;9.07;;;11.90;54.70;;;;;;5062159;28;20504;-71
2021/04/29 01:26:55;;;;;;;13.23;9.60;;;11.80;54.60;;;;;;5087177;28;20499;-71
2021/04/29 01:29:27;;;;;;;11.90;9.07;;;11.70;54.90;;;;;;5084213;28;20050;-71
2021/04/29 01:31:55;;;;;;;16.80;10.05;;;11.70;55.30;;;;;;5078822;28;20037;-71
2021/04/29 01:34:24;;;;;;;13.80;10.10;;;11.70;55.40;;;;;;5084182;28;20020;-71
2021/04/29 01:36:52;;;;;;;13.43;10.02;;;11.60;56.00;;;;;;5089053;28;20572;-71
2021/04/29 01:39:18;;;;;;;16.50;9.88;;;11.50;56.20;;;;;;5088754;28;20452;-71
2021/04/29 01:41:47;;;;;;;14.50;9.80;;;11.50;56.40;;;;;;5086960;28;20035;-71
2021/04/29 01:44:15;;;;;;;13.35;8.98;;;11.50;56.70;;;;;;5083284;28;20032;-71
2021/04/29 01:46:41;;;;;;;14.25;10.15;;;11.60;56.70;;;;;;5096587;28;20473;-71
2021/04/29 01:49:09;;;;;;;15.73;10.15;;;11.50;56.70;;;;;;5095904;28;20366;-71
2021/04/29 01:51:36;;;;;;;13.68;9.93;;;11.60;56.80;;;;;;5077466;28;20033;-71
2021/04/29 01:54:03;;;;;;;14.20;9.88;;;11.60;57.00;;;;;;5091122;28;20035;-71
2021/04/29 01:56:29;;;;;;;20.25;10.00;;;11.60;57.20;;;;;;5079347;28;20500;-71
2021/04/29 01:58:55;;;;;;;13.98;10.18;;;11.60;57.60;;;;;;5091604;28;20066;-71
2021/04/29 02:01:21;;;;;;;25.50;10.45;;;11.50;57.60;;;;;;5095794;28;20036;-71
2021/04/29 02:03:47;;;;;;;16.50;10.32;;;11.60;57.50;;;;;;5090859;28;20039;-71
2021/04/29 02:06:12;;;;;;;17.10;11.05;;;11.60;57.30;;;;;;5096108;28;20030;-71
2021/04/29 02:08:38;;;;;;;16.42;10.65;;;11.60;57.30;;;;;;5094826;28;20028;-71
2021/04/29 02:11:04;;;;;;;17.15;11.10;;;11.60;57.30;;;;;;5095949;28;20047;-71
2021/04/29 02:13:31;;;;;;;14.43;10.73;;;11.50;57.20;;;;;;5082084;28;20051;-71
2021/04/29 02:16:10;;;;;;;21.52;11.35;;;11.50;57.50;;;;;;5076268;28;20031;-70
2021/04/29 02:18:38;;;;;;;;;;;11.50;57.30;;;;;;5090576;28;20480;-71
2021/04/29 02:21:05;;;;;;;15.55;10.48;;;11.50;57.20;;;;;;5094219;28;19998;-71
2021/04/29 02:23:31;;;;;;;17.27;10.60;;;11.50;57.50;;;;;;5082897;28;20035;-71
2021/04/29 02:25:59;;;;;;;16.23;10.45;;;11.50;57.40;;;;;;5093769;28;20074;-71
2021/04/29 02:28:25;;;;;;;13.93;10.30;;;11.40;57.50;;;;;;5087149;28;20378;-71
2021/04/29 02:30:52;;;;;;;14.35;10.45;;;11.40;57.60;;;;;;5078632;28;20040;-71
2021/04/29 02:33:18;;;;;;;15.77;10.55;;;11.30;57.60;;;;;;5091790;28;20499;-71
2021/04/29 02:35:45;;;;;;;17.05;10.50;;;11.30;58.10;;;;;;5086554;28;20024;-71
2021/04/29 02:38:14;;;;;;;17.08;10.55;;;11.30;58.30;;;;;;5093993;28;20024;-71
2021/04/29 02:40:41;;;;;;;15.88;9.32;;;11.30;58.30;;;;;;5085715;28;20186;-71
2021/04/29 02:43:10;;;;;;;18.75;11.35;;;11.40;58.40;;;;;;5091778;28;20028;-71
2021/04/29 02:45:36;;;;;;;18.33;11.40;;;11.30;58.50;;;;;;5084242;28;20028;-71
2021/04/29 02:48:03;;;;;;;16.80;10.75;;;11.20;58.60;;;;;;5094364;28;20481;-71
2021/04/29 02:50:28;;;;;;;16.75;10.70;;;11.20;58.80;;;;;;5081237;28;20036;-71
2021/04/29 02:52:57;;;;;;;17.13;11.43;;;11.30;58.70;;;;;;5088816;28;20038;-71
2021/04/29 02:55:23;;;;;;;17.95;11.68;;;11.20;58.80;;;;;;5083341;28;20024;-71
2021/04/29 02:57:49;;;;;;;20.40;11.30;;;11.20;59.20;;;;;;5076828;28;20501;-71
2021/04/29 03:00:18;;;;;;;18.10;11.10;;;11.10;59.20;;;;;;5086497;28;20039;-71
2021/04/29 03:02:44;;;;;;;19.25;10.68;;;11.10;59.20;;;;;;5075333;28;20034;-71
2021/04/29 03:05:11;;;;;;;19.10;11.93;;;11.10;59.20;;;;;;5092173;28;20458;-71
2021/04/29 03:07:38;;;;;;;16.77;11.68;;;11.10;59.20;;;;;;5091129;28;20110;-71
2021/04/29 03:10:06;;;;;;;18.92;10.95;;;11.00;59.20;;;;;;5092859;28;20028;-71
2021/04/29 03:12:32;;;;;;;16.53;11.07;;;11.10;59.60;;;;;;5076276;28;20028;-70
2021/04/29 03:14:58;;;;;;;13.27;10.82;;;11.10;59.70;;;;;;5106531;28;20039;-71
2021/04/29 03:17:23;;;;;;;16.02;10.98;;;11.10;60.00;;;;;;5076234;28;20028;-71
2021/04/29 03:19:49;;;;;;;16.50;11.52;;;11.10;60.20;;;;;;5080731;28;20064;-71
2021/04/29 03:22:15;;;;;;;18.58;11.55;;;11.20;60.30;;;;;;5091178;28;20040;-71
2021/04/29 03:24:41;;;;;;;16.80;11.63;;;11.20;60.40;;;;;;5082562;28;20028;-71
2021/04/29 03:27:07;;;;;;;19.23;10.77;;;11.10;60.60;;;;;;5078810;28;20063;-71
2021/04/29 03:29:32;;;;;;;17.33;11.70;;;11.10;60.70;;;;;;5085685;28;20060;-71
2021/04/29 03:31:58;;;;;;;15.38;11.27;;;11.10;60.80;;;;;;5090312;28;20035;-71
2021/04/29 03:34:24;;;;;;;19.77;11.55;;;11.00;60.60;;;;;;5091067;28;20024;-71
2021/04/29 03:36:50;;;;;;;14.32;11.38;;;10.90;60.80;;;;;;5075826;28;20069;-71
2021/04/29 03:39:15;;;;;;;16.50;10.82;;;10.90;61.10;;;;;;5087335;28;20419;-71
2021/04/29 03:41:41;;;;;;;16.60;11.35;;;10.80;61.50;;;;;;5085114;28;20542;-71
2021/04/29 03:44:06;;;;;;;18.15;11.20;;;10.80;61.60;;;;;;5083217;28;20032;-71
2021/04/29 03:46:32;;;;;;;16.95;11.20;;;10.70;61.40;;;;;;5084810;28;20054;-71
2021/04/29 03:48:58;;;;;;;17.95;11.93;;;10.70;61.70;;;;;;5062373;28;20489;-71
2021/04/29 03:51:23;;;;;;;12.98;10.30;;;10.70;61.70;;;;;;5084397;28;20028;-71
2021/04/29 03:53:49;;;;;;;18.13;11.40;;;10.70;61.70;;;;;;5082416;28;20034;-71
2021/04/29 03:56:14;;;;;;;14.38;11.38;;;10.70;61.70;;;;;;5061667;28;20033;-71
2021/04/29 03:58:40;;;;;;;16.10;11.40;;;10.70;61.70;;;;;;5089589;28;20028;-71
2021/04/29 04:01:06;;;;;;;15.80;11.80;;;10.60;61.50;;;;;;5079099;28;20078;-71
2021/04/29 04:03:31;;;;;;;16.75;11.02;;;10.70;61.60;;;;;;5074603;28;20028;-71
2021/04/29 04:05:57;;;;;;;19.13;10.88;;;10.70;61.80;;;;;;5090484;28;20408;-71
2021/04/29 04:08:23;;;;;;;16.50;11.57;;;10.70;62.10;;;;;;5074189;28;20482;-71
2021/04/29 04:10:48;;;;;;;17.95;11.02;;;10.70;62.20;;;;;;5085346;28;20036;-71
2021/04/29 04:13:18;;;;;;;20.95;10.82;;;10.70;62.30;;;;;;5065501;28;20622;-71
2021/04/29 04:15:45;;;;;;;22.20;12.00;;;10.70;62.20;;;;;;5090016;28;20107;-71
2021/04/29 04:18:11;;;;;;;16.48;11.00;;;10.60;62.70;;;;;;5090976;28;20111;-71
2021/04/29 04:20:37;;;;;;;15.10;10.18;;;10.60;62.20;;;;;;5086249;28;20520;-71
2021/04/29 04:23:03;;;;;;;17.08;11.20;;;10.50;62.40;;;;;;5067484;28;20033;-71
2021/04/29 04:25:28;;;;;;;19.52;11.38;;;10.50;63.20;;;;;;5091114;28;20032;-70
2021/04/29 04:27:54;;;;;;;17.35;11.20;;;10.50;62.60;;;;;;5093375;28;20035;-71
2021/04/29 04:30:20;;;;;;;18.55;11.32;;;10.50;62.50;;;;;;5091416;28;20432;-71
2021/04/29 04:32:45;;;;;;;16.98;10.45;;;10.50;62.70;;;;;;5092611;28;20063;-71
2021/04/29 04:35:12;;;;;;;16.58;11.73;;;10.60;62.50;;;;;;5092975;28;20054;-71
2021/04/29 04:37:37;;;;;;;18.23;11.10;;;10.60;62.50;;;;;;5076470;28;20035;-70
2021/04/29 04:40:04;;;;;;;17.23;11.18;;;10.60;62.40;;;;;;5084720;28;20028;-71
2021/04/29 04:42:29;;;;;;;19.52;11.65;;;10.60;62.50;;;;;;5081942;28;20032;-71
2021/04/29 04:44:55;;;;;;;14.13;10.85;;;10.60;62.40;;;;;;5069718;28;20031;-71
2021/04/29 04:47:21;;;;;;;18.05;11.05;;;10.60;62.20;;;;;;5088212;28;20457;-71
2021/04/29 04:49:46;;;;;;;15.02;11.00;;;10.60;62.20;;;;;;5074929;28;20032;-71
2021/04/29 04:52:12;;;;;;;22.00;11.25;;;10.60;62.40;;;;;;5088667;28;20085;-71
2021/04/29 04:54:38;;;;;;;22.40;12.07;;;10.60;62.50;;;;;;5085906;28;20066;-71
2021/04/29 04:57:04;;;;;;;23.42;11.80;;;10.60;62.70;;;;;;5087804;28;20428;-71
2021/04/29 04:59:29;;;;;;;16.58;10.93;;;10.60;62.90;;;;;;5072638;28;20032;-71
2021/04/29 05:01:55;;;;;;;16.17;10.73;;;10.60;62.90;;;;;;5084874;28;20028;-70
2021/04/29 05:04:26;;;;;;;16.73;11.57;;;10.60;62.70;;;;;;5078123;28;20103;-70
2021/04/29 05:06:54;;;;;;;21.20;12.48;;;10.60;62.90;;;;;;5089415;28;20034;-71
2021/04/29 05:09:20;;;;;;;20.92;12.13;;;10.60;63.00;;;;;;5082565;28;20115;-71
2021/04/29 05:11:46;;;;;;;22.58;12.45;;;10.50;62.90;;;;;;5078312;28;20102;-71
2021/04/29 05:14:11;;;;;;;22.15;12.23;;;10.50;62.90;;;;;;5091746;28;20403;-70
2021/04/29 05:16:37;;;;;;;17.25;11.63;;;10.60;63.00;;;;;;5090856;28;20035;-71
2021/04/29 05:19:03;;;;;;;17.20;10.82;;;10.50;62.80;;;;;;5091442;28;20089;-71
2021/04/29 05:21:28;;;;;;;16.92;12.43;;;10.50;63.20;;;;;;5092560;28;20028;-71
2021/04/29 05:23:54;;;;;;;16.17;12.05;;;10.60;63.30;;;;;;5086658;28;20455;-71
2021/04/29 05:26:20;;;;;;;16.77;12.05;;;10.60;63.30;;;;;;5092108;28;20043;-71
2021/04/29 05:28:45;;;;;;;15.68;10.95;;;10.50;63.10;;;;;;5079611;28;20044;-71
2021/04/29 05:31:11;;;;;;;18.67;12.05;;;10.50;63.10;;;;;;5082746;28;20047;-71
2021/04/29 05:33:36;;;;;;;17.08;12.02;;;10.50;63.30;;;;;;5087271;28;20025;-71
2021/04/29 05:36:02;;;;;;;15.70;11.68;;;10.40;63.50;;;;;;5092109;28;20111;-71
2021/04/29 05:38:28;;;;;;;17.10;11.18;;;10.40;64.30;;;;;;5072498;28;20028;-71
2021/04/29 05:40:54;;;;;;;14.93;11.07;;;10.30;63.80;;;;;;5072413;28;20033;-71
2021/04/29 05:43:19;;;;;;;21.02;12.20;;;10.30;63.80;;;;;;5083831;28;20028;-70
2021/04/29 05:45:45;;;;;;;19.73;10.70;;;10.40;64.00;;;;;;5080422;28;20111;-71
2021/04/29 05:48:11;;;;;;;17.17;11.15;;;10.40;63.90;;;;;;5092605;28;20081;-71
2021/04/29 05:50:36;;;;;;;18.75;11.13;;;10.40;63.90;;;;;;5073951;28;20459;-71
2021/04/29 05:53:02;;;;;;;19.27;11.85;;;10.40;64.10;;;;;;5092828;28;20111;-70
2021/04/29 05:55:27;;;;;;;21.08;12.20;;;10.40;64.50;;;;;;5087316;28;20067;-71
2021/04/29 05:57:57;;;;;;;25.80;12.43;;;10.40;64.70;;;;;;5072037;28;20037;-71
2021/04/29 06:00:23;;;;;;;18.17;12.82;;;10.40;64.90;;;;;;5056862;28;20358;-71
2021/04/29 06:02:49;;;;;;;16.95;12.07;;;10.40;64.90;;;;;;5074054;28;20468;-71
2021/04/29 06:05:15;;;;;;;19.08;11.93;;;10.50;65.70;;;;;;5079623;28;20056;-71
2021/04/29 06:07:40;;;;;;;20.05;12.70;;;10.50;65.10;;;;;;5092237;28;20370;-71
2021/04/29 06:10:06;;;;;;;18.35;12.65;;;10.50;65.20;;;;;;5069853;28;20370;-71
2021/04/29 06:12:32;;;;;;;21.10;13.15;;;10.60;65.10;;;;;;5071980;28;20404;-71
2021/04/29 06:14:58;;;;;;;20.77;13.60;;;10.70;65.20;;;;;;5081933;28;20123;-71
2021/04/29 06:17:23;;;;;;;20.20;13.48;;;10.80;65.30;;;;;;5037411;28;20063;-71
2021/04/29 06:19:49;;;;;;;20.95;13.93;;;10.90;65.80;;;;;;5075225;28;20032;-71
2021/04/29 06:22:15;;;;;;;24.25;14.15;;;11.10;66.40;;;;;;5071854;28;20028;-71
2021/04/29 06:24:40;;;;;;;27.17;15.23;;;11.10;66.10;;;;;;5082728;28;20530;-71
2021/04/29 06:27:06;;;;;;;21.63;14.13;;;11.20;66.00;;;;;;5097943;28;20066;-71
2021/04/29 06:29:33;;;;;;;25.80;15.02;;;11.40;65.90;;;;;;5078143;28;20086;-71
2021/04/29 06:31:59;;;;;;;35.00;15.40;;;11.50;65.60;;;;;;5102668;28;20036;-71
2021/04/29 06:34:25;;;;;;;20.33;16.27;;;11.60;65.70;;;;;;5108629;28;20030;-71
2021/04/29 06:36:50;;;;;;;19.88;14.88;;;11.70;65.70;;;;;;5087143;28;20029;-71
2021/04/29 06:39:19;;;;;;;28.95;15.60;;;11.80;65.50;;;;;;5075267;28;20036;-71
2021/04/29 06:41:44;;;;;;;27.00;15.80;;;12.00;66.00;;;;;;5076782;28;20058;-71
2021/04/29 06:44:11;;;;;;;22.77;16.42;;;12.10;65.30;;;;;;5095225;28;20477;-71
2021/04/29 06:46:36;;;;;;;21.85;15.73;;;12.20;65.80;;;;;;5092114;28;20024;-71
2021/04/29 06:49:02;;;;;;;20.63;15.43;;;12.40;65.10;;;;;;5075128;28;20091;-71
2021/04/29 06:51:28;;;;;;;21.80;16.60;;;12.50;64.80;;;;;;5073665;28;20056;-71
2021/04/29 06:53:54;;;;;;;21.83;16.13;;;12.60;64.80;;;;;;5078048;28;20056;-71
2021/04/29 06:56:19;;;;;;;23.92;16.65;;;12.70;64.40;;;;;;5072255;28;20460;-71
2021/04/29 06:58:45;;;;;;;21.08;15.50;;;12.90;63.80;;;;;;5076571;28;20063;-71
2021/04/29 07:01:11;;;;;;;23.10;16.15;;;13.00;63.50;;;;;;5070928;28;20059;-71
2021/04/29 07:03:36;;;;;;;22.90;17.17;;;13.00;63.10;;;;;;5084458;28;20032;-71
2021/04/29 07:06:02;;;;;;;21.77;17.20;;;13.10;63.50;;;;;;5094934;28;20060;-71
2021/04/29 07:08:28;;;;;;;25.98;17.08;;;13.10;63.60;;;;;;5092948;28;20037;-70
2021/04/29 07:10:53;;;;;;;25.35;17.83;;;13.20;63.60;;;;;;5076781;28;20059;-71
2021/04/29 07:13:19;;;;;;;26.23;17.25;;;13.20;63.40;;;;;;5076272;28;20036;-72
2021/04/29 07:15:44;;;;;;;24.63;18.33;;;13.30;63.40;;;;;;5083986;28;20020;-71
2021/04/29 07:18:12;;;;;;;29.23;18.40;;;13.30;63.30;;;;;;5094197;28;20073;-71
2021/04/29 07:20:37;;;;;;;29.35;18.00;;;13.30;63.30;;;;;;5094694;28;20050;-71
2021/04/29 07:23:04;;;;;;;33.60;19.00;;;13.30;63.40;;;;;;5079818;28;20434;-71
2021/04/29 07:25:31;;;;;;;25.67;18.65;;;13.40;63.30;;;;;;5073649;28;20118;-71
2021/04/29 07:31:33;;;;;;;28.92;20.77;;;13.30;63.30;;;;;;5091028;28;20043;-71
2021/04/29 07:33:59;;;;;;;29.92;21.98;;;13.20;63.30;;;;;;5082781;28;20064;-71
2021/04/29 07:36:24;;;;;;;29.42;22.58;;;13.20;63.40;;;;;;5094111;28;20031;-71
2021/04/29 07:38:50;;;;;;;29.95;22.30;;;13.30;63.80;;;;;;5078052;28;20078;-71
2021/04/29 07:41:16;;;;;;;31.58;22.80;;;13.40;63.50;;;;;;5092797;28;20107;-71
2021/04/29 07:43:41;;;;;;;32.72;23.92;;;13.60;63.00;;;;;;5088384;28;20056;-72
2021/04/29 07:46:07;;;;;;;30.30;24.05;;;13.70;62.20;;;;;;5067282;28;20085;-72
2021/04/29 07:48:33;;;;;;;39.80;26.65;;;13.80;62.30;;;;;;5063440;28;20393;-72
2021/04/29 07:51:00;;;;;;;30.63;24.95;;;13.80;62.40;;;;;;5082593;28;20124;-71
2021/04/29 07:53:26;;;;;;;36.55;25.85;;;13.80;63.00;;;;;;5077760;28;20020;-71
2021/04/29 07:55:52;;;;;;;36.15;23.35;;;13.70;63.20;;;;;;5074756;28;20428;-71
2021/04/29 07:58:17;;;;;;;41.22;26.08;;;13.60;63.60;;;;;;5094208;28;20024;-71
2021/04/29 08:00:43;;;;;;;40.97;29.33;;;13.50;63.70;;;;;;5092345;28;20126;-71
2021/04/29 08:03:09;;;;;;;36.97;27.98;;;13.50;63.50;;;;;;5092776;28;20055;-71
2021/04/29 08:05:35;;;;;;;38.72;30.15;;;13.40;63.80;;;;;;5058826;28;20032;-71
2021/04/29 08:08:01;;;;;;;35.80;28.70;;;13.50;64.10;;;;;;5093993;28;20028;-71
2021/04/29 08:10:27;;;;;;;38.28;28.67;;;13.50;64.20;;;;;;5092269;28;20118;-71
2021/04/29 08:12:53;;;;;;;38.28;29.98;;;13.50;64.10;;;;;;5082069;28;20028;-71
2021/04/29 08:15:18;;;;;;;34.60;28.17;;;13.50;64.20;;;;;;5082694;28;20028;-71
2021/04/29 08:17:44;;;;;;;36.35;28.27;;;13.50;64.20;;;;;;5081390;28;20033;-71
2021/04/29 08:20:10;;;;;;;37.85;28.58;;;13.50;64.20;;;;;;5074851;28;20025;-72
2021/04/29 08:22:36;;;;;;;38.90;30.02;;;13.50;63.90;;;;;;5056150;28;20032;-71
2021/04/29 08:25:02;;;;;;;38.03;28.95;;;13.50;63.70;;;;;;5071001;28;20035;-71
2021/04/29 08:27:28;;;;;;;41.72;31.73;;;13.50;63.50;;;;;;5093078;28;20016;-71
2021/04/29 08:29:54;;;;;;;40.75;29.60;;;13.40;63.90;;;;;;5093562;28;20500;-71
2021/04/29 08:32:21;;;;;;;38.92;29.52;;;13.50;63.80;;;;;;5088391;28;20036;-71
2021/04/29 08:34:46;;;;;;;43.92;30.13;;;13.60;63.50;;;;;;5067059;28;20542;-71
2021/04/29 08:37:12;;;;;;;36.15;28.83;;;13.80;63.00;;;;;;5083319;28;20020;-71
2021/04/29 08:39:38;;;;;;;38.03;28.13;;;13.90;62.80;;;;;;5093563;28;20067;-71
2021/04/29 08:42:05;;;;;;;36.42;29.30;;;14.00;62.20;;;;;;5093630;28;20034;-71
2021/04/29 08:44:31;;;;;;;38.22;29.27;;;14.10;62.70;;;;;;5083217;28;20090;-71
2021/04/29 08:46:57;;;;;;;44.60;31.05;;;14.20;62.30;;;;;;5073169;28;20037;-71
2021/04/29 08:49:23;;;;;;;38.80;29.92;;;14.20;61.20;;;;;;5073177;28;20095;-71
2021/04/29 08:51:51;;;;;;;38.70;29.17;;;14.20;61.40;;;;;;5054773;28;20477;-71
2021/04/29 08:54:17;;;;;;;38.10;28.35;;;14.20;61.90;;;;;;5062604;28;20069;-72
2021/04/29 08:56:42;;;;;;;42.40;29.95;;;14.30;61.30;;;;;;5080038;28;20036;-72
2021/04/29 08:59:08;;;;;;;40.67;28.92;;;14.50;61.10;;;;;;5064583;28;20473;-71
2021/04/29 09:01:45;;;;;;;37.22;27.90;;;14.80;61.20;;;;;;5072937;28;20031;-71
2021/04/29 09:04:12;;;;;;;34.88;27.45;;;15.00;59.20;;;;;;5073012;28;20043;-71
2021/04/29 09:06:38;;;;;;;39.65;29.85;;;15.20;58.90;;;;;;5073288;28;20104;-71
2021/04/29 09:09:05;;;;;;;38.83;30.67;;;15.20;59.20;;;;;;5073623;28;20501;-71
2021/04/29 09:11:31;;;;;;;38.58;30.10;;;15.00;59.50;;;;;;5087468;28;20075;-71
2021/04/29 09:13:59;;;;;;;36.90;28.75;;;14.80;59.00;;;;;;5072600;28;20068;-71
2021/04/29 09:16:36;;;;;;;37.75;27.42;;;14.50;59.50;;;;;;5072883;28;20040;-71
2021/04/29 09:19:01;;;;;;;36.80;27.90;;;14.30;59.90;;;;;;5072962;28;20020;-71
2021/04/29 09:21:32;;;;;;;35.83;27.08;;;14.10;60.30;;;;;;5093044;28;20410;-71
2021/04/29 09:23:58;;;;;;;35.67;26.73;;;14.20;61.20;;;;;;5092863;28;20024;-71
2021/04/29 09:26:23;;;;;;;40.13;26.17;;;14.60;61.00;;;;;;5074875;28;20484;-71
2021/04/29 09:28:55;;;;;;;31.02;22.38;;;15.00;59.90;;;;;;5092983;28;20032;-71
2021/04/29 09:31:26;;;;;;;30.67;20.90;;;15.10;58.70;;;;;;5055033;28;20028;-71
2021/04/29 09:33:55;;;;;;;30.95;18.15;;;14.90;58.00;;;;;;5054699;28;20033;-72
2021/04/29 09:36:22;;;;;;;25.90;18.38;;;14.70;58.50;;;;;;5054568;28;20017;-71
2021/04/29 09:38:56;;;;;;;25.13;15.18;;;14.50;58.60;;;;;;5072629;28;20023;-72
2021/04/29 09:41:27;;;;;;;20.20;15.45;;;14.30;58.80;;;;;;5091713;28;20035;-71
2021/04/29 09:43:59;;;;;;;24.58;14.30;;;14.20;59.10;;;;;;5092850;28;20024;-71
2021/04/29 09:46:36;;;;;;;20.38;13.70;;;14.10;59.10;;;;;;5092791;28;20106;-72
2021/04/29 09:49:02;;;;;;;19.92;12.82;;;14.10;59.40;;;;;;5092575;28;20657;-71
2021/04/29 09:51:37;;;;;;;16.48;12.20;;;14.20;59.80;;;;;;5058650;28;20028;-71
2021/04/29 09:54:02;;;;;;;16.88;10.55;;;14.40;59.80;;;;;;5076095;28;20054;-71
2021/04/29 09:56:28;;;;;;;19.83;9.45;;;14.70;59.30;;;;;;5054512;28;20474;-71
2021/04/29 09:58:58;;;;;;;13.98;8.10;;;15.30;56.70;;;;;;5072532;28;20048;-71
2021/04/29 10:01:27;;;;;;;19.15;8.90;;;15.60;55.00;;;;;;5091467;28;20030;-71
2021/04/29 10:03:55;;;;;;;18.45;7.47;;;15.70;55.20;;;;;;5075628;28;20119;-71
2021/04/29 10:06:22;;;;;;;9.88;7.70;;;15.90;54.00;;;;;;5096872;28;20031;-71
2021/04/29 10:08:51;;;;;;;16.50;8.18;;;16.10;53.90;;;;;;5096929;28;20036;-72
2021/04/29 10:11:25;;;;;;;16.02;6.78;;;16.50;52.90;;;;;;5096177;28;20505;-71
2021/04/29 10:13:54;;;;;;;14.48;6.32;;;16.50;51.80;;;;;;5093586;28;20028;-71
2021/04/29 10:16:23;;;;;;;17.48;7.47;;;16.20;52.40;;;;;;5093753;28;20043;-71
2021/04/29 10:18:50;;;;;;;17.00;6.97;;;15.70;53.30;;;;;;5084734;28;20032;-71
2021/04/29 10:21:19;;;;;;;11.07;5.50;;;15.30;54.20;;;;;;5090159;28;20039;-71
2021/04/29 10:23:46;;;;;;;17.13;5.30;;;15.20;54.50;;;;;;5115128;28;20027;-71
2021/04/29 10:26:11;;;;;;;11.82;5.38;;;15.20;54.60;;;;;;5106860;28;20077;-71
2021/04/29 10:28:43;;;;;;;9.80;5.35;;;15.10;54.60;;;;;;5074728;28;20032;-71
2021/04/29 10:31:30;;;;;;;10.18;5.95;;;14.90;55.70;;;;;;5092076;28;20042;-71
2021/04/29 10:34:00;;;;;;;6.97;5.68;;;14.70;56.30;;;;;;5095211;28;20024;-71
2021/04/29 10:36:46;;;;;;;12.77;6.80;;;14.50;57.60;;;;;;5096061;28;20105;-71
2021/04/29 10:39:14;;;;;;;11.80;6.25;;;14.40;58.90;;;;;;5077755;28;20127;-71
2021/04/29 10:41:41;;;;;;;8.77;6.47;;;14.20;58.90;;;;;;5088130;28;20427;-71
2021/04/29 10:44:17;;;;;;;7.88;6.57;;;14.10;59.50;;;;;;5087945;28;20039;-71
2021/04/29 10:46:44;;;;;;;10.60;7.15;;;14.00;60.30;;;;;;5086808;28;20028;-71
2021/04/29 10:49:13;;;;;;;16.30;6.20;;;13.90;60.50;;;;;;5072748;28;20504;-71
2021/04/29 10:51:43;;;;;;;12.32;6.55;;;13.80;60.70;;;;;;5080546;28;20029;-71
2021/04/29 10:54:35;;;;;;;9.13;6.13;;;13.60;60.70;;;;;;5083996;28;20111;-71
2021/04/29 10:57:10;;;;;;;9.75;5.75;;;13.50;61.20;;;;;;5078281;28;20064;-71
2021/04/29 10:59:43;;;;;;;9.70;6.38;;;13.30;61.20;;;;;;5075355;28;20025;-71
2021/04/29 11:02:31;;;;;;;9.65;6.45;;;13.10;61.40;;;;;;5085543;28;20028;-71
2021/04/29 11:04:58;;;;;;;8.25;6.68;;;13.00;62.20;;;;;;5095433;28;20016;-71
2021/04/29 11:07:26;;;;;;;10.23;7.28;;;12.90;62.20;;;;;;5095380;28;20028;-71
2021/04/29 11:10:01;;;;;;;9.73;6.63;;;12.80;62.50;;;;;;5095227;28;20434;-71
2021/04/29 11:12:40;;;;;;;14.95;6.93;;;12.60;63.70;;;;;;5082001;28;20052;-71
2021/04/29 11:15:17;;;;;;;;;;;12.60;63.70;;;;;;5076975;28;20046;-71
2021/04/29 11:17:43;;;;;;;10.80;8.18;;;12.60;63.70;;;;;;5094939;28;19904;-71
2021/04/29 11:20:09;;;;;;;11.85;8.07;;;12.40;63.90;;;;;;5060345;28;20104;-71
2021/04/29 11:22:37;;;;;;;12.35;8.35;;;12.30;64.30;;;;;;5066279;28;20040;-71
2021/04/29 11:25:10;;;;;;;11.38;8.40;;;12.30;64.60;;;;;;5089452;28;20020;-71
2021/04/29 11:27:39;;;;;;;13.98;9.90;;;12.20;65.00;;;;;;5094896;28;20405;-71
2021/04/29 11:30:12;;;;;;;14.40;10.55;;;12.10;66.40;;;;;;5094982;28;20158;-71
2021/04/29 11:32:39;;;;;;;15.10;10.05;;;11.80;67.80;;;;;;5084418;28;20401;-71
2021/04/29 11:35:27;;;;;;;12.00;9.43;;;11.60;68.60;;;;;;5074740;28;20581;-71
2021/04/29 11:37:53;;;;;;;10.60;8.90;;;11.30;69.00;;;;;;5074082;28;20158;-71
2021/04/29 11:40:20;;;;;;;10.68;8.57;;;11.10;69.60;;;;;;5090337;28;20032;-71
2021/04/29 11:42:50;;;;;;;10.65;8.88;;;11.00;70.00;;;;;;5085418;28;20423;-71
2021/04/29 11:45:18;;;;;;;11.52;9.00;;;11.00;70.20;;;;;;5094734;28;20472;-71
2021/04/29 11:47:54;;;;;;;12.32;8.80;;;10.90;70.10;;;;;;5094642;28;20071;-71
2021/04/29 11:50:26;;;;;;;11.75;9.18;;;10.90;70.20;;;;;;5094502;28;20052;-71
2021/04/29 11:53:09;;;;;;;12.75;9.05;;;10.90;70.20;;;;;;5064549;28;20031;-71
2021/04/29 11:55:37;;;;;;;11.68;9.50;;;10.80;70.50;;;;;;5074165;28;20350;-71
2021/04/29 11:58:08;;;;;;;11.82;9.38;;;10.70;70.60;;;;;;5074089;28;20120;-71
2021/04/29 12:00:42;;;;;;;14.18;10.27;;;10.70;70.70;;;;;;5074206;28;20052;-71
2021/04/29 12:03:11;;;;;;;12.98;10.48;;;10.60;70.90;;;;;;5085612;28;20044;-71
2021/04/29 12:05:38;;;;;;;15.20;10.23;;;10.50;71.40;;;;;;5073887;28;20039;-71
2021/04/29 12:08:04;;;;;;;14.57;9.75;;;10.40;71.70;;;;;;5073771;28;20039;-71
2021/04/29 12:10:46;;;;;;;16.60;9.73;;;10.40;71.90;;;;;;5073817;28;20032;-71
2021/04/29 12:13:14;;;;;;;15.00;9.55;;;10.40;72.30;;;;;;5056787;28;20366;-71
2021/04/29 12:15:40;;;;;;;17.77;9.63;;;10.40;71.50;;;;;;5093879;28;20052;-71
2021/04/29 12:18:13;;;;;;;10.57;7.47;;;10.40;71.40;;;;;;5075938;28;20111;-71
2021/04/29 12:20:39;;;;;;;11.10;7.30;;;10.40;70.80;;;;;;5075911;28;20024;-71
2021/04/29 12:23:08;;;;;;;9.15;6.60;;;10.40;71.30;;;;;;5093137;28;20510;-71
2021/04/29 12:25:34;;;;;;;10.32;5.55;;;10.40;70.40;;;;;;5087310;28;20027;-71
2021/04/29 12:28:00;;;;;;;10.35;6.38;;;10.40;70.00;;;;;;5081193;28;20438;-71
2021/04/29 12:30:27;;;;;;;10.50;6.13;;;10.40;70.20;;;;;;5080349;28;20042;-75
2021/04/29 12:32:52;;;;;;;11.27;7.13;;;10.40;70.20;;;;;;5073841;28;20020;-75
2021/04/29 12:35:37;;;;;;;8.95;6.95;;;10.30;70.60;;;;;;5088523;28;20070;-75